createdAt,value
2023-01-03T00:01:56.801Z,6.70
2023-01-03T00:04:25.823Z,6.60
2023-01-03T00:06:53.628Z,6.70
2023-01-03T00:09:26.242Z,6.60
2023-01-03T00:12:13.210Z,6.60
2023-01-03T00:14:46.937Z,6.60
2023-01-03T00:17:14.152Z,6.50
2023-01-03T00:19:44.925Z,6.50
2023-01-03T00:22:13.645Z,6.50
2023-01-03T00:24:43.239Z,6.50
2023-01-03T00:27:12.860Z,6.50
2023-01-03T00:29:39.651Z,6.50
2023-01-03T00:32:06.835Z,6.40
2023-01-03T00:34:36.609Z,6.40
2023-01-03T00:37:03.596Z,6.50
2023-01-03T00:39:30.382Z,6.40
2023-01-03T00:41:57.437Z,6.40
2023-01-03T00:44:26.489Z,6.40
2023-01-03T00:46:58.041Z,6.30
2023-01-03T00:49:27.424Z,6.30
2023-01-03T00:51:54.174Z,6.30
2023-01-03T00:54:23.934Z,6.30
2023-01-03T00:56:51.999Z,6.30
2023-01-03T00:59:22.012Z,6.30
2023-01-03T01:01:52.862Z,6.30
2023-01-03T01:04:24.318Z,6.20
2023-01-03T01:06:56.285Z,6.30
2023-01-03T01:09:25.804Z,6.30
2023-01-03T01:11:55.619Z,6.30
2023-01-03T01:14:26.301Z,6.30
2023-01-03T01:17:00.102Z,6.30
2023-01-03T01:19:44.975Z,6.30
2023-01-03T01:22:12.702Z,6.20
2023-01-03T01:24:44.144Z,6.20
2023-01-03T01:27:13.675Z,6.10
2023-01-03T01:29:45.109Z,6.00
2023-01-03T01:32:11.952Z,6.00
2023-01-03T01:34:41.387Z,5.90
2023-01-03T01:37:11.609Z,5.90
2023-01-03T01:39:38.403Z,5.80
2023-01-03T01:42:30.394Z,5.80
2023-01-03T01:45:04.589Z,5.80
2023-01-03T01:47:59.750Z,5.80
2023-01-03T01:50:38.073Z,5.80
2023-01-03T01:53:30.911Z,5.80
2023-01-03T01:56:23.137Z,5.80
2023-01-03T01:58:55.790Z,5.70
2023-01-03T02:01:25.600Z,5.70
2023-01-03T02:04:19.254Z,5.60
2023-01-03T02:06:49.229Z,5.60
2023-01-03T02:09:16.522Z,5.60
2023-01-03T02:12:35.402Z,5.60
2023-01-03T02:15:24.781Z,5.60
2023-01-03T02:18:22.795Z,5.50
2023-01-03T02:21:20.369Z,5.50
2023-01-03T02:24:22.049Z,5.50
2023-01-03T02:27:04.136Z,5.50
2023-01-03T02:30:05.609Z,5.40
2023-01-03T02:32:44.411Z,5.40
2023-01-03T02:35:38.893Z,5.40
2023-01-03T02:38:35.220Z,5.30
2023-01-03T02:41:17.816Z,5.30
2023-01-03T02:43:56.967Z,5.20
2023-01-03T02:46:59.194Z,5.20
2023-01-03T02:49:35.460Z,5.20
2023-01-03T02:52:06.709Z,5.20
2023-01-03T02:54:53.215Z,5.20
2023-01-03T02:57:29.836Z,5.10
2023-01-03T03:00:08.120Z,5.10
2023-01-03T03:02:36.842Z,5.00
2023-01-03T03:05:08.854Z,5.00
2023-01-03T03:07:39.356Z,5.00
2023-01-03T03:10:26.728Z,4.90
2023-01-03T03:13:17.713Z,4.90
2023-01-03T03:15:59.638Z,4.90
2023-01-03T03:18:44.174Z,4.70
2023-01-03T03:21:32.818Z,4.70
2023-01-03T03:24:36.301Z,4.60
2023-01-03T03:27:27.423Z,4.50
2023-01-03T03:29:59.900Z,4.40
2023-01-03T03:32:30.140Z,4.30
2023-01-03T03:34:59.753Z,4.30
2023-01-03T03:37:33.690Z,4.30
2023-01-03T03:40:19.072Z,4.30
2023-01-03T03:43:13.899Z,4.30
2023-01-03T03:45:53.030Z,4.20
2023-01-03T03:49:06.498Z,4.30
2023-01-03T03:51:36.567Z,4.20
2023-01-03T03:54:12.360Z,4.20
2023-01-03T03:56:46.603Z,4.20
2023-01-03T03:59:21.205Z,4.10
2023-01-03T04:01:49.166Z,4.20
2023-01-03T04:04:23.780Z,4.10
2023-01-03T04:06:54.043Z,4.20
2023-01-03T04:09:23.293Z,4.20
2023-01-03T04:11:50.036Z,4.30
2023-01-03T04:14:21.510Z,4.30
2023-01-03T04:16:50.648Z,4.40
2023-01-03T04:19:20.259Z,4.40
2023-01-03T04:21:46.997Z,4.50
2023-01-03T04:24:16.496Z,4.60
2023-01-03T04:26:48.152Z,4.80
2023-01-03T04:29:14.962Z,4.80
2023-01-03T04:31:44.160Z,4.90
2023-01-03T04:34:11.056Z,5.00
2023-01-03T04:36:43.485Z,5.00
2023-01-03T04:39:13.149Z,5.00
2023-01-03T04:41:39.896Z,5.10
2023-01-03T04:44:06.868Z,5.10
2023-01-03T04:46:44.079Z,5.10
2023-01-03T04:49:15.289Z,5.10
2023-01-03T04:51:44.157Z,5.10
2023-01-03T04:54:10.984Z,5.10
2023-01-03T04:56:38.593Z,5.10
2023-01-03T04:59:07.874Z,5.10
2023-01-03T05:01:37.010Z,5.20
2023-01-03T05:04:08.556Z,5.20
2023-01-03T05:06:37.897Z,5.20
2023-01-03T05:09:11.813Z,5.20
2023-01-03T05:11:44.199Z,5.20
2023-01-03T05:14:14.443Z,5.30
2023-01-03T05:16:41.810Z,5.30
2023-01-03T05:19:11.392Z,5.30
2023-01-03T05:21:58.067Z,5.30
2023-01-03T05:24:43.487Z,5.30
2023-01-03T05:27:15.260Z,5.30
2023-01-03T05:29:44.323Z,5.30
2023-01-03T05:32:13.408Z,5.30
2023-01-03T05:34:40.177Z,5.30
2023-01-03T05:37:09.310Z,5.40
2023-01-03T05:39:36.044Z,5.40
2023-01-03T05:42:05.212Z,5.40
2023-01-03T05:44:34.953Z,5.50
2023-01-03T05:47:05.541Z,5.50
2023-01-03T05:49:35.657Z,5.50
2023-01-03T05:52:05.027Z,5.40
2023-01-03T05:54:34.521Z,5.40
2023-01-03T05:57:03.912Z,5.40
2023-01-03T05:59:30.657Z,5.40
2023-01-03T06:01:57.585Z,5.40
2023-01-03T06:04:24.576Z,5.40
2023-01-03T06:06:54.194Z,5.50
2023-01-03T06:09:23.682Z,5.50
2023-01-03T06:11:50.437Z,5.50
2023-01-03T06:14:19.590Z,5.60
2023-01-03T06:17:07.452Z,5.70
2023-01-03T06:19:39.425Z,5.70
2023-01-03T06:22:10.853Z,5.80
2023-01-03T06:24:40.771Z,5.80
2023-01-03T06:27:07.713Z,5.90
2023-01-03T06:29:39.408Z,5.90
2023-01-03T06:32:09.696Z,6.00
2023-01-03T06:34:37.200Z,6.00
2023-01-03T06:37:04.219Z,6.00
2023-01-03T06:39:33.489Z,6.00
2023-01-03T06:42:23.732Z,6.10
2023-01-03T06:45:09.010Z,6.10
2023-01-03T06:47:58.944Z,6.10
2023-01-03T06:50:44.083Z,6.10
2023-01-03T06:53:15.169Z,6.20
2023-01-03T06:55:43.935Z,6.30
2023-01-03T06:58:11.523Z,6.30
2023-01-03T07:00:42.523Z,6.30
2023-01-03T07:03:11.677Z,6.30
2023-01-03T07:05:40.869Z,6.40
2023-01-03T07:08:07.791Z,6.50
2023-01-03T07:10:34.560Z,6.50
2023-01-03T07:13:20.291Z,6.50
2023-01-03T07:15:49.673Z,6.50
2023-01-03T07:18:16.513Z,6.50
2023-01-03T07:20:44.194Z,6.60
2023-01-03T07:23:13.711Z,6.60
2023-01-03T07:25:41.876Z,6.60
2023-01-03T07:28:12.516Z,6.70
2023-01-03T07:30:44.403Z,6.70
2023-01-03T07:33:17.882Z,6.70
2023-01-03T07:35:45.675Z,6.70
2023-01-03T07:38:15.281Z,6.80
2023-01-03T07:40:42.063Z,6.80
2023-01-03T07:43:32.177Z,6.80
2023-01-03T07:46:01.563Z,6.80
2023-01-03T07:48:30.822Z,6.90
2023-01-03T07:51:00.726Z,6.90
2023-01-03T07:53:28.411Z,6.90
2023-01-03T07:56:07.699Z,6.90
2023-01-03T07:58:37.930Z,6.90
2023-01-03T08:01:13.761Z,7.00
2023-01-03T08:03:41.542Z,7.00
2023-01-03T08:06:20.607Z,7.00
2023-01-03T08:09:07.397Z,7.10
2023-01-03T08:11:55.449Z,7.10
2023-01-03T08:14:26.063Z,7.10
2023-01-03T08:16:54.996Z,7.10
2023-01-03T08:19:22.250Z,7.10
2023-01-03T08:21:51.211Z,7.10
2023-01-03T08:24:18.025Z,7.20
2023-01-03T08:26:44.894Z,7.20
2023-01-03T08:29:11.938Z,7.20
2023-01-03T08:31:51.604Z,7.20
2023-01-03T08:34:29.442Z,7.30
2023-01-03T08:37:03.921Z,7.30
2023-01-03T08:39:37.971Z,7.30
2023-01-03T08:42:07.640Z,7.40
2023-01-03T08:44:37.090Z,7.40
2023-01-03T08:47:08.800Z,7.40
2023-01-03T08:49:35.620Z,7.50
2023-01-03T08:52:05.253Z,7.50
2023-01-03T08:54:39.372Z,7.50
2023-01-03T08:57:06.493Z,7.50
2023-01-03T08:59:35.445Z,7.60
2023-01-03T09:02:04.970Z,7.60
2023-01-03T09:04:31.879Z,7.60
2023-01-03T09:07:03.719Z,7.70
2023-01-03T09:09:30.761Z,7.70
2023-01-03T09:11:57.532Z,7.80
2023-01-03T09:14:24.542Z,7.80
2023-01-03T09:16:53.755Z,7.90
2023-01-03T09:19:20.612Z,7.90
2023-01-03T09:21:47.388Z,7.90
2023-01-03T09:24:16.811Z,8.00
2023-01-03T09:26:52.351Z,8.00
2023-01-03T09:29:24.131Z,8.00
2023-01-03T09:31:53.684Z,8.10
2023-01-03T09:34:23.553Z,8.10
2023-01-03T09:36:52.797Z,8.20
2023-01-03T09:39:20.216Z,8.20
2023-01-03T09:42:07.037Z,8.30
2023-01-03T09:44:33.834Z,8.30
2023-01-03T09:47:03.447Z,8.30
2023-01-03T09:49:32.737Z,8.30
2023-01-03T09:52:18.028Z,8.30
2023-01-03T09:55:04.157Z,8.40
2023-01-03T09:57:50.842Z,8.40
2023-01-03T10:01:00.057Z,8.50
2023-01-03T10:03:52.003Z,8.50
2023-01-03T10:06:31.450Z,8.50
2023-01-03T10:09:13.499Z,8.60
2023-01-03T10:12:11.811Z,8.60
2023-01-03T10:14:58.699Z,8.70
2023-01-03T10:17:53.092Z,8.70
2023-01-03T10:20:46.077Z,8.70
2023-01-03T10:23:15.613Z,8.70
2023-01-03T10:25:46.768Z,8.70
2023-01-03T10:28:21.946Z,8.70
2023-01-03T10:31:08.241Z,8.70
2023-01-03T10:33:41.925Z,8.70
2023-01-03T10:36:09.675Z,8.70
2023-01-03T10:38:49.374Z,8.70
2023-01-03T10:41:38.199Z,8.70
2023-01-03T10:44:05.445Z,8.70
2023-01-03T10:46:32.294Z,8.70
2023-01-03T10:49:34.945Z,8.80
2023-01-03T10:52:16.629Z,8.80
2023-01-03T10:54:43.704Z,8.80
2023-01-03T10:57:43.559Z,8.80
2023-01-03T11:00:31.947Z,8.80
2023-01-03T11:03:09.832Z,8.90
2023-01-03T11:05:37.861Z,8.90
2023-01-03T11:08:13.179Z,8.90
2023-01-03T11:10:57.466Z,9.00
2023-01-03T11:13:24.262Z,9.00
2023-01-03T11:15:56.458Z,9.10
2023-01-03T11:18:26.636Z,9.10
2023-01-03T11:21:07.838Z,9.10
2023-01-03T11:23:42.813Z,9.10
2023-01-03T11:26:45.332Z,9.20
2023-01-03T11:29:33.239Z,9.10
2023-01-03T11:32:35.829Z,9.20
2023-01-03T11:35:30.220Z,9.20
2023-01-03T11:38:20.204Z,9.20
2023-01-03T11:40:59.953Z,9.30
2023-01-03T11:43:46.770Z,9.30
2023-01-03T11:46:23.475Z,9.40
2023-01-03T11:49:07.154Z,9.40
2023-01-03T11:51:49.233Z,9.40
2023-01-03T11:54:53.125Z,9.50
2023-01-03T11:57:38.314Z,9.60
2023-01-03T12:00:26.980Z,9.60
2023-01-03T12:03:00.903Z,9.60
2023-01-03T12:05:37.427Z,9.50
2023-01-03T12:08:06.497Z,9.60
2023-01-03T12:10:55.803Z,9.60
2023-01-03T12:13:36.847Z,9.60
2023-01-03T12:16:15.111Z,9.60
2023-01-03T12:18:41.929Z,9.70
2023-01-03T12:21:18.833Z,9.70
2023-01-03T12:24:01.395Z,9.70
2023-01-03T12:26:29.910Z,9.70
2023-01-03T12:29:05.129Z,9.70
2023-01-03T12:31:39.610Z,9.70
2023-01-03T12:34:37.272Z,9.80
2023-01-03T12:37:21.632Z,9.80
2023-01-03T12:39:55.252Z,9.80
2023-01-03T12:42:45.143Z,9.90
2023-01-03T12:45:31.117Z,9.90
2023-01-03T12:48:38.168Z,9.90
2023-01-03T12:51:06.700Z,10.00
2023-01-03T12:53:47.463Z,10.10
2023-01-03T12:56:52.191Z,10.10
2023-01-03T12:59:45.572Z,10.10
2023-01-03T13:02:42.059Z,10.20
2023-01-03T13:05:30.882Z,10.20
2023-01-03T13:08:15.566Z,10.30
2023-01-03T13:10:47.325Z,10.30
2023-01-03T13:13:15.438Z,10.30
2023-01-03T13:15:42.492Z,10.30
2023-01-03T13:18:21.770Z,10.30
2023-01-03T13:20:53.150Z,10.30
2023-01-03T13:23:41.633Z,10.30
2023-01-03T13:26:20.709Z,10.20
2023-01-03T13:28:47.867Z,10.20
2023-01-03T13:31:14.748Z,10.20
2023-01-03T13:34:29.523Z,10.20
2023-01-03T13:37:08.323Z,10.20
2023-01-03T13:39:53.487Z,10.30
2023-01-03T13:42:38.894Z,10.30
2023-01-03T13:45:19.694Z,10.30
2023-01-03T13:47:49.448Z,10.30
2023-01-03T13:50:26.203Z,10.30
2023-01-03T13:53:04.012Z,10.30
2023-01-03T13:55:36.876Z,10.30
2023-01-03T13:58:27.929Z,10.40
2023-01-03T14:01:05.431Z,10.30
2023-01-03T14:03:33.214Z,10.30
2023-01-03T14:06:12.690Z,10.30
2023-01-03T14:08:48.064Z,10.30
2023-01-03T14:11:34.311Z,10.30
2023-01-03T14:14:06.372Z,10.30
2023-01-03T14:16:50.865Z,10.30
2023-01-03T14:19:22.524Z,10.30
2023-01-03T14:22:26.864Z,10.30
2023-01-03T14:24:56.563Z,10.30
2023-01-03T14:27:40.575Z,10.30
2023-01-03T14:30:24.683Z,10.20
2023-01-03T14:32:51.575Z,10.20
2023-01-03T14:35:42.691Z,10.20
2023-01-03T14:38:27.996Z,10.20
2023-01-03T14:40:55.988Z,10.10
2023-01-03T14:43:25.720Z,10.20
2023-01-03T14:45:54.582Z,10.10
2023-01-03T14:48:23.047Z,10.10
2023-01-03T14:50:50.212Z,10.10
2023-01-03T14:53:17.660Z,10.10
2023-01-03T14:55:57.275Z,10.00
2023-01-03T14:58:42.064Z,10.00
2023-01-03T15:01:11.666Z,10.00
2023-01-03T15:03:42.277Z,10.00
2023-01-03T15:06:29.821Z,9.90
2023-01-03T15:09:12.524Z,10.00
2023-01-03T15:11:57.069Z,9.90
2023-01-03T15:14:26.113Z,9.90
2023-01-03T15:17:06.078Z,9.90
2023-01-03T15:19:34.785Z,9.90
2023-01-03T15:22:34.557Z,9.90
2023-01-03T15:25:08.674Z,9.90
2023-01-03T15:27:38.640Z,9.80
2023-01-03T15:30:15.525Z,9.80
2023-01-03T15:32:49.054Z,9.80
2023-01-03T15:35:20.699Z,9.80
2023-01-03T15:37:52.925Z,9.80
2023-01-03T15:40:19.964Z,9.80
2023-01-03T15:43:05.454Z,9.80
2023-01-03T15:45:40.914Z,9.70
2023-01-03T15:48:14.575Z,9.80
2023-01-03T15:50:49.543Z,9.70
2023-01-03T15:53:43.810Z,9.70
2023-01-03T15:56:47.158Z,9.80
2023-01-03T15:59:22.121Z,9.70
2023-01-03T16:01:49.084Z,9.70
2023-01-03T16:04:16.099Z,9.80
2023-01-03T16:06:43.042Z,9.70
2023-01-03T16:09:11.809Z,9.80
2023-01-03T16:11:40.013Z,9.80
2023-01-03T16:14:16.898Z,9.80
2023-01-03T16:16:47.090Z,9.80
2023-01-03T16:19:22.572Z,9.80
2023-01-03T16:22:24.569Z,9.80
2023-01-03T16:24:39.059Z,9.70
2023-01-03T16:27:20.476Z,9.70
2023-01-03T16:29:47.525Z,9.70
2023-01-03T16:32:32.859Z,9.70
2023-01-03T16:35:01.941Z,9.80
2023-01-03T16:37:29.160Z,9.80
2023-01-03T16:39:55.969Z,9.70
2023-01-03T16:42:27.588Z,9.70
2023-01-03T16:44:55.022Z,9.70
2023-01-03T16:47:23.453Z,9.70
2023-01-03T16:49:57.543Z,9.70
2023-01-03T16:52:39.480Z,9.70
2023-01-03T16:55:14.916Z,9.70
2023-01-03T16:57:42.047Z,9.70
2023-01-03T17:00:18.270Z,9.70
2023-01-03T17:02:45.310Z,9.70
2023-01-03T17:05:12.226Z,9.70
2023-01-03T17:07:40.133Z,9.70
2023-01-03T17:10:08.194Z,9.70
2023-01-03T17:12:34.967Z,9.80
2023-01-03T17:15:01.731Z,9.70
2023-01-03T17:17:28.683Z,9.70
2023-01-03T17:20:04.977Z,9.80
2023-01-03T17:22:32.465Z,9.80
2023-01-03T17:24:59.215Z,9.80
2023-01-03T17:27:31.828Z,9.90
2023-01-03T17:30:03.073Z,9.80
2023-01-03T17:32:30.563Z,9.80
2023-01-03T17:34:57.596Z,9.80
2023-01-03T17:37:25.166Z,9.80
2023-01-03T17:39:59.449Z,9.90
2023-01-03T17:42:26.994Z,9.90
2023-01-03T17:45:15.027Z,9.90
2023-01-03T17:48:02.716Z,9.90
2023-01-03T17:50:31.162Z,9.90
2023-01-03T17:52:59.740Z,9.90
2023-01-03T17:55:30.741Z,9.90
2023-01-03T17:58:01.794Z,9.90
2023-01-03T18:00:30.460Z,9.90
2023-01-03T18:03:00.320Z,9.90
2023-01-03T18:05:28.833Z,9.90
2023-01-03T18:07:58.770Z,9.90
2023-01-03T18:10:43.778Z,9.90
2023-01-03T18:13:24.055Z,9.90
2023-01-03T18:15:54.764Z,9.90
2023-01-03T18:18:26.627Z,9.90
2023-01-03T18:20:54.400Z,9.90
2023-01-03T18:23:33.060Z,10.00
2023-01-03T18:26:08.276Z,10.00
2023-01-03T18:28:35.025Z,9.90
2023-01-03T18:31:04.132Z,9.90
2023-01-03T18:33:30.903Z,10.00
2023-01-03T18:35:57.864Z,10.00
2023-01-03T18:38:38.085Z,10.00
2023-01-03T18:41:08.021Z,10.00
2023-01-03T18:43:34.709Z,9.90
2023-01-03T18:46:01.780Z,10.00
2023-01-03T18:48:28.572Z,10.00
2023-01-03T18:50:59.535Z,10.00
2023-01-03T18:53:32.021Z,10.00
2023-01-03T18:55:59.847Z,10.00
2023-01-03T18:58:38.909Z,10.00
2023-01-03T19:01:06.918Z,10.00
2023-01-03T19:03:35.340Z,10.00
2023-01-03T19:06:03.497Z,10.00
2023-01-03T19:08:34.160Z,10.00
2023-01-03T19:11:11.773Z,10.00
2023-01-03T19:13:52.961Z,10.00
2023-01-03T19:16:25.218Z,10.00
2023-01-03T19:18:52.422Z,10.00
2023-01-03T19:21:21.237Z,10.00
2023-01-03T19:24:05.201Z,10.00
2023-01-03T19:26:39.782Z,10.00
2023-01-03T19:29:10.782Z,10.00
2023-01-03T19:31:44.276Z,10.00
2023-01-03T19:34:23.079Z,10.00
2023-01-03T19:36:50.823Z,10.00
2023-01-03T19:39:24.432Z,10.00
2023-01-03T19:42:15.505Z,10.10
2023-01-03T19:44:45.487Z,10.00
2023-01-03T19:47:14.560Z,10.00
2023-01-03T19:49:47.140Z,10.00
2023-01-03T19:52:16.711Z,10.00
2023-01-03T19:54:44.353Z,10.00
2023-01-03T19:57:33.350Z,10.00
2023-01-03T20:00:05.205Z,10.00
2023-01-03T20:02:37.446Z,10.00
2023-01-03T20:05:17.640Z,10.00
2023-01-03T20:07:45.530Z,10.00
2023-01-03T20:10:22.876Z,10.00
2023-01-03T20:12:54.527Z,10.00
2023-01-03T20:15:23.611Z,10.00
2023-01-03T20:17:51.012Z,10.00
2023-01-03T20:20:18.039Z,10.00
2023-01-03T20:25:34.395Z,10.10
2023-01-03T20:28:01.904Z,10.10
2023-01-03T20:30:31.281Z,10.10
2023-01-03T20:32:58.251Z,10.10
2023-01-03T20:36:08.254Z,10.10
2023-01-03T20:38:16.938Z,10.10
2023-01-03T20:40:43.711Z,10.20
2023-01-03T20:43:14.401Z,10.20
2023-01-03T20:45:41.584Z,10.20
2023-01-03T20:48:22.771Z,10.20
2023-01-03T20:50:52.169Z,10.20
2023-01-03T20:53:24.166Z,10.20
2023-01-03T20:55:51.746Z,10.30
2023-01-03T20:58:21.220Z,10.20
2023-01-03T21:00:50.723Z,10.30
2023-01-03T21:03:17.640Z,10.30
2023-01-03T21:05:44.672Z,10.30
2023-01-03T21:08:35.788Z,10.30
2023-01-03T21:11:02.572Z,10.20
2023-01-03T21:13:29.361Z,10.20
2023-01-03T21:15:56.564Z,10.30
2023-01-03T21:18:23.463Z,10.20
2023-01-03T21:20:50.204Z,10.20
2023-01-03T21:23:21.235Z,10.20
2023-01-03T21:25:48.684Z,10.30
2023-01-03T21:28:15.687Z,10.30
2023-01-03T21:30:45.260Z,10.20
2023-01-03T21:33:19.769Z,10.30
2023-01-03T21:35:49.682Z,10.20
2023-01-03T21:38:18.661Z,10.30
2023-01-03T21:40:48.473Z,10.30
2023-01-03T21:43:15.586Z,10.30
2023-01-03T21:45:46.471Z,10.30
2023-01-03T21:48:18.101Z,10.30
2023-01-03T21:50:46.887Z,10.30
2023-01-03T21:53:23.461Z,10.30
2023-01-03T21:55:50.697Z,10.30
2023-01-03T21:58:24.259Z,10.30
2023-01-03T22:00:51.125Z,10.40
2023-01-03T22:03:36.959Z,10.40
2023-01-03T22:06:12.730Z,10.40
2023-01-03T22:08:40.715Z,10.40
2023-01-03T22:11:11.974Z,10.30
2023-01-03T22:13:38.906Z,10.30
2023-01-03T22:16:07.664Z,10.30
2023-01-03T22:18:35.289Z,10.30
2023-01-03T22:21:07.795Z,10.20
2023-01-03T22:23:35.613Z,10.30
2023-01-03T22:26:15.917Z,10.30
2023-01-03T22:28:48.393Z,10.30
2023-01-03T22:31:22.815Z,10.20
2023-01-03T22:33:50.090Z,10.20
2023-01-03T22:36:17.722Z,10.20
2023-01-03T22:38:44.907Z,10.20
2023-01-03T22:41:14.909Z,10.10
2023-01-03T22:43:41.990Z,10.20
2023-01-03T22:46:14.426Z,10.10
2023-01-03T22:48:41.948Z,10.10
2023-01-03T22:51:11.656Z,10.10
2023-01-03T22:53:40.261Z,10.10
2023-01-03T22:56:10.277Z,10.10
2023-01-03T22:58:37.672Z,10.10
2023-01-03T23:01:18.638Z,10.10
2023-01-03T23:03:47.043Z,10.10
2023-01-03T23:06:17.368Z,10.10
2023-01-03T23:08:44.471Z,10.10
2023-01-03T23:11:35.307Z,10.10
2023-01-03T23:14:08.443Z,10.10
2023-01-03T23:16:37.976Z,10.10
2023-01-03T23:19:07.791Z,10.10
2023-01-03T23:21:34.776Z,10.10
2023-01-03T23:24:01.624Z,10.20
2023-01-03T23:26:28.719Z,10.10
2023-01-03T23:29:01.702Z,10.10
2023-01-03T23:31:28.489Z,10.10
2023-01-03T23:34:02.309Z,10.20
2023-01-03T23:36:29.740Z,10.10
2023-01-03T23:38:56.433Z,10.20
2023-01-03T23:41:23.162Z,10.20
2023-01-03T23:43:53.720Z,10.20
2023-01-03T23:46:23.290Z,10.20
2023-01-03T23:48:57.463Z,10.20
2023-01-03T23:51:25.476Z,10.20
2023-01-03T23:53:53.166Z,10.20
2023-01-03T23:56:22.661Z,10.20
2023-01-03T23:58:49.882Z,10.20
